sensor_id;sensor_type;location;lat;lon;timestamp;pressure;altitude;pressure_sealevel;temperature
24740;BMP280;45234;48.148;17.128;2023-11-19T00:00:34;100527.34;;;5.46
24740;BMP280;45234;48.148;17.128;2023-11-19T00:03:02;100526.91;;;5.50
24740;BMP280;45234;48.148;17.128;2023-11-19T00:05:29;100522.31;;;5.54
24740;BMP280;45234;48.148;17.128;2023-11-19T00:07:56;100522.69;;;5.59
24740;BMP280;45234;48.148;17.128;2023-11-19T00:10:23;100514.66;;;5.62
24740;BMP280;45234;48.148;17.128;2023-11-19T00:12:50;100505.75;;;5.66
24740;BMP280;45234;48.148;17.128;2023-11-19T00:15:18;100526.53;;;5.72
24740;BMP280;45234;48.148;17.128;2023-11-19T00:17:47;100528.81;;;5.76
24740;BMP280;45234;48.148;17.128;2023-11-19T00:20:17;100520.13;;;5.77
24740;BMP280;45234;48.148;17.128;2023-11-19T00:22:45;100517.78;;;5.65
24740;BMP280;45234;48.148;17.128;2023-11-19T00:25:17;100512.56;;;5.57
24740;BMP280;45234;48.148;17.128;2023-11-19T00:27:45;100510.16;;;5.46
24740;BMP280;45234;48.148;17.128;2023-11-19T00:30:13;100510.78;;;5.30
24740;BMP280;45234;48.148;17.128;2023-11-19T00:32:41;100506.63;;;5.20
24740;BMP280;45234;48.148;17.128;2023-11-19T00:35:09;100512.72;;;5.19
24740;BMP280;45234;48.148;17.128;2023-11-19T00:37:42;100512.47;;;5.22
24740;BMP280;45234;48.148;17.128;2023-11-19T00:40:13;100506.72;;;5.28
24740;BMP280;45234;48.148;17.128;2023-11-19T00:42:40;100495.09;;;5.33
24740;BMP280;45234;48.148;17.128;2023-11-19T00:45:07;100496.16;;;5.31
24740;BMP280;45234;48.148;17.128;2023-11-19T00:47:36;100500.38;;;5.32
24740;BMP280;45234;48.148;17.128;2023-11-19T00:50:04;100506.69;;;5.37
24740;BMP280;45234;48.148;17.128;2023-11-19T00:52:31;100508.88;;;5.42
24740;BMP280;45234;48.148;17.128;2023-11-19T00:54:58;100498.84;;;5.39
24740;BMP280;45234;48.148;17.128;2023-11-19T00:57:25;100489.50;;;5.38
24740;BMP280;45234;48.148;17.128;2023-11-19T00:59:53;100489.38;;;5.39
24740;BMP280;45234;48.148;17.128;2023-11-19T01:02:20;100477.25;;;5.32
24740;BMP280;45234;48.148;17.128;2023-11-19T01:04:47;100472.38;;;5.29
24740;BMP280;45234;48.148;17.128;2023-11-19T01:07:14;100477.00;;;5.25
24740;BMP280;45234;48.148;17.128;2023-11-19T01:09:44;100481.03;;;5.28
24740;BMP280;45234;48.148;17.128;2023-11-19T01:12:11;100480.72;;;5.31
24740;BMP280;45234;48.148;17.128;2023-11-19T01:14:39;100475.09;;;5.27
24740;BMP280;45234;48.148;17.128;2023-11-19T01:17:06;100469.16;;;5.27
24740;BMP280;45234;48.148;17.128;2023-11-19T01:19:34;100474.13;;;5.28
24740;BMP280;45234;48.148;17.128;2023-11-19T01:22:01;100467.78;;;5.32
24740;BMP280;45234;48.148;17.128;2023-11-19T01:24:28;100458.69;;;5.28
24740;BMP280;45234;48.148;17.128;2023-11-19T01:26:57;100456.44;;;5.25
24740;BMP280;45234;48.148;17.128;2023-11-19T01:29:26;100453.16;;;5.33
24740;BMP280;45234;48.148;17.128;2023-11-19T01:31:53;100449.06;;;5.40
24740;BMP280;45234;48.148;17.128;2023-11-19T01:34:20;100451.38;;;5.43
24740;BMP280;45234;48.148;17.128;2023-11-19T01:36:48;100444.13;;;5.47
24740;BMP280;45234;48.148;17.128;2023-11-19T01:39:16;100445.75;;;5.48
24740;BMP280;45234;48.148;17.128;2023-11-19T01:41:43;100430.78;;;5.43
24740;BMP280;45234;48.148;17.128;2023-11-19T01:44:10;100440.31;;;5.51
24740;BMP280;45234;48.148;17.128;2023-11-19T01:46:42;100439.94;;;5.46
24740;BMP280;45234;48.148;17.128;2023-11-19T01:49:10;100434.00;;;5.45
24740;BMP280;45234;48.148;17.128;2023-11-19T01:51:39;100418.22;;;5.40
24740;BMP280;45234;48.148;17.128;2023-11-19T01:54:07;100407.78;;;5.41
24740;BMP280;45234;48.148;17.128;2023-11-19T01:56:35;100420.34;;;5.45
24740;BMP280;45234;48.148;17.128;2023-11-19T01:59:02;100415.72;;;5.48
24740;BMP280;45234;48.148;17.128;2023-11-19T02:01:30;100417.03;;;5.52
24740;BMP280;45234;48.148;17.128;2023-11-19T02:03:59;100413.09;;;5.58
24740;BMP280;45234;48.148;17.128;2023-11-19T02:06:28;100406.81;;;5.60
24740;BMP280;45234;48.148;17.128;2023-11-19T02:08:55;100389.06;;;5.67
24740;BMP280;45234;48.148;17.128;2023-11-19T02:11:22;100385.53;;;5.68
24740;BMP280;45234;48.148;17.128;2023-11-19T02:13:49;100400.16;;;5.67
24740;BMP280;45234;48.148;17.128;2023-11-19T02:16:16;100401.03;;;5.58
24740;BMP280;45234;48.148;17.128;2023-11-19T02:18:43;100395.00;;;5.50
24740;BMP280;45234;48.148;17.128;2023-11-19T02:21:10;100390.47;;;5.44
24740;BMP280;45234;48.148;17.128;2023-11-19T02:23:37;100390.63;;;5.42
24740;BMP280;45234;48.148;17.128;2023-11-19T02:26:15;100388.75;;;5.34
24740;BMP280;45234;48.148;17.128;2023-11-19T02:28:44;100392.78;;;5.37
24740;BMP280;45234;48.148;17.128;2023-11-19T02:31:11;100381.84;;;5.35
24740;BMP280;45234;48.148;17.128;2023-11-19T02:33:39;100357.50;;;5.29
24740;BMP280;45234;48.148;17.128;2023-11-19T02:36:07;100363.72;;;5.36
24740;BMP280;45234;48.148;17.128;2023-11-19T02:38:35;100353.56;;;5.35
24740;BMP280;45234;48.148;17.128;2023-11-19T02:41:06;100355.34;;;5.34
24740;BMP280;45234;48.148;17.128;2023-11-19T02:43:34;100354.25;;;5.37
24740;BMP280;45234;48.148;17.128;2023-11-19T02:46:05;100355.63;;;5.31
24740;BMP280;45234;48.148;17.128;2023-11-19T02:48:38;100341.13;;;5.30
24740;BMP280;45234;48.148;17.128;2023-11-19T02:51:05;100337.91;;;5.28
24740;BMP280;45234;48.148;17.128;2023-11-19T02:53:37;100332.63;;;5.30
24740;BMP280;45234;48.148;17.128;2023-11-19T02:56:06;100320.59;;;5.30
24740;BMP280;45234;48.148;17.128;2023-11-19T02:58:38;100322.34;;;5.30
24740;BMP280;45234;48.148;17.128;2023-11-19T03:01:05;100316.13;;;5.32
24740;BMP280;45234;48.148;17.128;2023-11-19T03:03:50;100310.19;;;5.32
24740;BMP280;45234;48.148;17.128;2023-11-19T03:06:29;100312.47;;;5.35
24740;BMP280;45234;48.148;17.128;2023-11-19T03:08:57;100303.78;;;5.36
24740;BMP280;45234;48.148;17.128;2023-11-19T03:11:24;100307.31;;;5.35
24740;BMP280;45234;48.148;17.128;2023-11-19T03:13:51;100305.41;;;5.37
24740;BMP280;45234;48.148;17.128;2023-11-19T03:16:18;100298.66;;;5.36
24740;BMP280;45234;48.148;17.128;2023-11-19T03:18:45;100301.38;;;5.34
24740;BMP280;45234;48.148;17.128;2023-11-19T03:21:12;100299.47;;;5.36
24740;BMP280;45234;48.148;17.128;2023-11-19T03:23:40;100288.06;;;5.39
24740;BMP280;45234;48.148;17.128;2023-11-19T03:26:08;100273.59;;;5.38
24740;BMP280;45234;48.148;17.128;2023-11-19T03:28:37;100271.03;;;5.38
24740;BMP280;45234;48.148;17.128;2023-11-19T03:31:07;100275.38;;;5.37
24740;BMP280;45234;48.148;17.128;2023-11-19T03:33:35;100274.56;;;5.37
24740;BMP280;45234;48.148;17.128;2023-11-19T03:36:05;100271.03;;;5.38
24740;BMP280;45234;48.148;17.128;2023-11-19T03:38:32;100260.00;;;5.28
24740;BMP280;45234;48.148;17.128;2023-11-19T03:40:59;100272.53;;;5.23
24740;BMP280;45234;48.148;17.128;2023-11-19T03:43:26;100272.53;;;5.23
24740;BMP280;45234;48.148;17.128;2023-11-19T03:45:54;100273.19;;;5.25
24740;BMP280;45234;48.148;17.128;2023-11-19T03:48:21;100267.66;;;5.20
24740;BMP280;45234;48.148;17.128;2023-11-19T03:50:49;100275.00;;;5.15
24740;BMP280;45234;48.148;17.128;2023-11-19T03:53:16;100285.06;;;5.08
24740;BMP280;45234;48.148;17.128;2023-11-19T03:55:42;100278.97;;;5.09
24740;BMP280;45234;48.148;17.128;2023-11-19T03:58:09;100283.75;;;5.04
24740;BMP280;45234;48.148;17.128;2023-11-19T04:00:36;100283.97;;;5.10
24740;BMP280;45234;48.148;17.128;2023-11-19T04:03:03;100272.22;;;5.08
24740;BMP280;45234;48.148;17.128;2023-11-19T04:05:31;100281.75;;;5.16
24740;BMP280;45234;48.148;17.128;2023-11-19T04:07:58;100272.81;;;5.20
24740;BMP280;45234;48.148;17.128;2023-11-19T04:10:25;100266.94;;;5.27
24740;BMP280;45234;48.148;17.128;2023-11-19T04:12:56;100262.97;;;5.33
24740;BMP280;45234;48.148;17.128;2023-11-19T04:15:23;100244.97;;;5.33
24740;BMP280;45234;48.148;17.128;2023-11-19T04:17:50;100240.66;;;5.16
24740;BMP280;45234;48.148;17.128;2023-11-19T04:20:18;100239.34;;;5.11
24740;BMP280;45234;48.148;17.128;2023-11-19T04:22:46;100237.41;;;4.96
24740;BMP280;45234;48.148;17.128;2023-11-19T04:25:13;100235.97;;;4.93
24740;BMP280;45234;48.148;17.128;2023-11-19T04:27:41;100229.22;;;4.92
24740;BMP280;45234;48.148;17.128;2023-11-19T04:30:08;100234.66;;;4.89
24740;BMP280;45234;48.148;17.128;2023-11-19T04:32:38;100236.59;;;4.77
24740;BMP280;45234;48.148;17.128;2023-11-19T04:35:05;100230.97;;;4.74
24740;BMP280;45234;48.148;17.128;2023-11-19T04:37:33;100220.69;;;4.74
24740;BMP280;45234;48.148;17.128;2023-11-19T04:40:02;100214.97;;;4.80
24740;BMP280;45234;48.148;17.128;2023-11-19T04:42:29;100216.81;;;4.88
24740;BMP280;45234;48.148;17.128;2023-11-19T04:44:56;100212.88;;;4.93
24740;BMP280;45234;48.148;17.128;2023-11-19T04:47:23;100227.75;;;5.07
24740;BMP280;45234;48.148;17.128;2023-11-19T04:49:52;100221.50;;;5.10
24740;BMP280;45234;48.148;17.128;2023-11-19T04:52:19;100224.50;;;5.05
24740;BMP280;45234;48.148;17.128;2023-11-19T04:54:45;100217.03;;;4.94
24740;BMP280;45234;48.148;17.128;2023-11-19T04:57:13;100214.78;;;4.91
24740;BMP280;45234;48.148;17.128;2023-11-19T04:59:40;100216.38;;;4.92
24740;BMP280;45234;48.148;17.128;2023-11-19T05:02:09;100217.59;;;4.88
24740;BMP280;45234;48.148;17.128;2023-11-19T05:04:36;100207.06;;;4.91
24740;BMP280;45234;48.148;17.128;2023-11-19T05:07:04;100204.66;;;4.90
24740;BMP280;45234;48.148;17.128;2023-11-19T05:09:32;100197.06;;;4.88
24740;BMP280;45234;48.148;17.128;2023-11-19T05:11:59;100201.19;;;4.81
24740;BMP280;45234;48.148;17.128;2023-11-19T05:14:26;100202.66;;;4.84
24740;BMP280;45234;48.148;17.128;2023-11-19T05:16:52;100196.00;;;4.91
24740;BMP280;45234;48.148;17.128;2023-11-19T05:19:19;100200.06;;;4.84
24740;BMP280;45234;48.148;17.128;2023-11-19T05:21:47;100193.69;;;4.88
24740;BMP280;45234;48.148;17.128;2023-11-19T05:24:14;100201.47;;;4.96
24740;BMP280;45234;48.148;17.128;2023-11-19T05:26:41;100197.28;;;4.95
24740;BMP280;45234;48.148;17.128;2023-11-19T05:29:08;100187.59;;;4.89
24740;BMP280;45234;48.148;17.128;2023-11-19T05:31:35;100189.28;;;4.80
24740;BMP280;45234;48.148;17.128;2023-11-19T05:34:04;100187.22;;;4.66
24740;BMP280;45234;48.148;17.128;2023-11-19T05:36:31;100190.19;;;4.71
24740;BMP280;45234;48.148;17.128;2023-11-19T05:38:58;100185.34;;;4.68
24740;BMP280;45234;48.148;17.128;2023-11-19T05:41:25;100174.78;;;4.71
24740;BMP280;45234;48.148;17.128;2023-11-19T05:43:52;100163.88;;;4.77
24740;BMP280;45234;48.148;17.128;2023-11-19T05:46:19;100169.81;;;4.77
24740;BMP280;45234;48.148;17.128;2023-11-19T05:48:47;100167.38;;;4.68
24740;BMP280;45234;48.148;17.128;2023-11-19T05:51:15;100153.78;;;4.58
24740;BMP280;45234;48.148;17.128;2023-11-19T05:53:42;100161.56;;;4.48
24740;BMP280;45234;48.148;17.128;2023-11-19T05:56:09;100159.00;;;4.48
24740;BMP280;45234;48.148;17.128;2023-11-19T05:58:37;100153.41;;;4.53
24740;BMP280;45234;48.148;17.128;2023-11-19T06:01:05;100158.31;;;4.46
24740;BMP280;45234;48.148;17.128;2023-11-19T06:03:35;100147.22;;;4.45
24740;BMP280;45234;48.148;17.128;2023-11-19T06:06:03;100152.59;;;4.34
24740;BMP280;45234;48.148;17.128;2023-11-19T06:08:32;100146.94;;;4.31
24740;BMP280;45234;48.148;17.128;2023-11-19T06:10:59;100147.63;;;4.05
24740;BMP280;45234;48.148;17.128;2023-11-19T06:13:28;100141.16;;;4.01
24740;BMP280;45234;48.148;17.128;2023-11-19T06:15:58;100132.94;;;3.98
24740;BMP280;45234;48.148;17.128;2023-11-19T06:18:25;100131.97;;;3.99
24740;BMP280;45234;48.148;17.128;2023-11-19T06:20:52;100140.03;;;4.04
24740;BMP280;45234;48.148;17.128;2023-11-19T06:23:19;100123.97;;;4.11
24740;BMP280;45234;48.148;17.128;2023-11-19T06:25:46;100116.59;;;3.99
24740;BMP280;45234;48.148;17.128;2023-11-19T06:28:13;100122.59;;;3.90
24740;BMP280;45234;48.148;17.128;2023-11-19T06:30:40;100123.56;;;3.79
24740;BMP280;45234;48.148;17.128;2023-11-19T06:33:09;100121.53;;;3.82
24740;BMP280;45234;48.148;17.128;2023-11-19T06:35:39;100111.69;;;3.78
24740;BMP280;45234;48.148;17.128;2023-11-19T06:38:06;100114.84;;;3.72
24740;BMP280;45234;48.148;17.128;2023-11-19T06:40:36;100125.53;;;3.67
24740;BMP280;45234;48.148;17.128;2023-11-19T06:43:03;100127.81;;;3.61
24740;BMP280;45234;48.148;17.128;2023-11-19T06:45:31;100123.78;;;3.58
24740;BMP280;45234;48.148;17.128;2023-11-19T06:48:00;100135.41;;;3.52
24740;BMP280;45234;48.148;17.128;2023-11-19T06:50:27;100141.19;;;3.54
24740;BMP280;45234;48.148;17.128;2023-11-19T06:52:55;100133.91;;;3.50
24740;BMP280;45234;48.148;17.128;2023-11-19T06:55:22;100133.03;;;3.41
24740;BMP280;45234;48.148;17.128;2023-11-19T06:57:49;100139.91;;;3.41
24740;BMP280;45234;48.148;17.128;2023-11-19T07:00:16;100141.25;;;3.45
24740;BMP280;45234;48.148;17.128;2023-11-19T07:02:45;100137.34;;;3.41
24740;BMP280;45234;48.148;17.128;2023-11-19T07:05:12;100131.13;;;3.43
24740;BMP280;45234;48.148;17.128;2023-11-19T07:07:40;100131.13;;;3.43
24740;BMP280;45234;48.148;17.128;2023-11-19T07:10:08;100125.59;;;3.48
24740;BMP280;45234;48.148;17.128;2023-11-19T07:12:36;100122.22;;;3.47
24740;BMP280;45234;48.148;17.128;2023-11-19T07:15:04;100114.38;;;3.49
24740;BMP280;45234;48.148;17.128;2023-11-19T07:17:32;100095.47;;;3.50
24740;BMP280;45234;48.148;17.128;2023-11-19T07:19:59;100097.88;;;3.61
24740;BMP280;45234;48.148;17.128;2023-11-19T07:22:29;100102.72;;;3.74
24740;BMP280;45234;48.148;17.128;2023-11-19T07:24:56;100100.28;;;3.72
24740;BMP280;45234;48.148;17.128;2023-11-19T07:27:23;100095.16;;;3.72
24740;BMP280;45234;48.148;17.128;2023-11-19T07:29:51;100095.81;;;3.74
24740;BMP280;45234;48.148;17.128;2023-11-19T07:32:18;100097.94;;;3.79
24740;BMP280;45234;48.148;17.128;2023-11-19T07:34:45;100086.59;;;3.81
24740;BMP280;45234;48.148;17.128;2023-11-19T07:37:12;100080.50;;;3.82
24740;BMP280;45234;48.148;17.128;2023-11-19T07:39:39;100085.13;;;3.79
24740;BMP280;45234;48.148;17.128;2023-11-19T07:42:08;100069.16;;;3.95
24740;BMP280;45234;48.148;17.128;2023-11-19T07:44:37;100068.06;;;4.15
24740;BMP280;45234;48.148;17.128;2023-11-19T07:47:04;100058.66;;;4.24
24740;BMP280;45234;48.148;17.128;2023-11-19T07:49:31;100040.28;;;4.28
24740;BMP280;45234;48.148;17.128;2023-11-19T07:51:58;100041.59;;;4.32
24740;BMP280;45234;48.148;17.128;2023-11-19T07:54:25;100069.31;;;4.46
24740;BMP280;45234;48.148;17.128;2023-11-19T07:56:52;100059.47;;;4.60
24740;BMP280;45234;48.148;17.128;2023-11-19T07:59:22;100066.66;;;4.74
24740;BMP280;45234;48.148;17.128;2023-11-19T08:01:49;100057.66;;;4.78
24740;BMP280;45234;48.148;17.128;2023-11-19T08:04:16;100053.88;;;4.82
24740;BMP280;45234;48.148;17.128;2023-11-19T08:06:43;100054.22;;;4.87
24740;BMP280;45234;48.148;17.128;2023-11-19T08:09:12;100058.38;;;4.88
24740;BMP280;45234;48.148;17.128;2023-11-19T08:11:41;100040.56;;;4.87
24740;BMP280;45234;48.148;17.128;2023-11-19T08:14:09;100039.22;;;5.00
24740;BMP280;45234;48.148;17.128;2023-11-19T08:16:38;100042.38;;;4.94
24740;BMP280;45234;48.148;17.128;2023-11-19T08:19:05;100032.59;;;4.98
24740;BMP280;45234;48.148;17.128;2023-11-19T08:21:32;100035.38;;;5.04
24740;BMP280;45234;48.148;17.128;2023-11-19T08:24:00;100029.66;;;5.19
24740;BMP280;45234;48.148;17.128;2023-11-19T08:26:26;100025.25;;;5.37
24740;BMP280;45234;48.148;17.128;2023-11-19T08:28:53;100030.75;;;5.50
24740;BMP280;45234;48.148;17.128;2023-11-19T08:31:20;100026.34;;;5.77
24740;BMP280;45234;48.148;17.128;2023-11-19T08:33:47;100037.66;;;6.00
24740;BMP280;45234;48.148;17.128;2023-11-19T08:36:18;100047.63;;;6.11
24740;BMP280;45234;48.148;17.128;2023-11-19T08:38:45;100045.38;;;6.16
24740;BMP280;45234;48.148;17.128;2023-11-19T08:41:12;100047.63;;;6.11
24740;BMP280;45234;48.148;17.128;2023-11-19T08:43:39;100061.78;;;6.07
24740;BMP280;45234;48.148;17.128;2023-11-19T08:46:11;100066.25;;;5.97
24740;BMP280;45234;48.148;17.128;2023-11-19T08:48:38;100058.88;;;6.02
24740;BMP280;45234;48.148;17.128;2023-11-19T08:51:06;100058.53;;;6.05
24740;BMP280;45234;48.148;17.128;2023-11-19T08:53:33;100061.59;;;6.00
24740;BMP280;45234;48.148;17.128;2023-11-19T08:56:01;100061.75;;;5.99
24740;BMP280;45234;48.148;17.128;2023-11-19T08:58:30;100061.44;;;6.02
24740;BMP280;45234;48.148;17.128;2023-11-19T09:00:57;100044.72;;;5.98
24740;BMP280;45234;48.148;17.128;2023-11-19T09:03:25;100047.09;;;5.91
24740;BMP280;45234;48.148;17.128;2023-11-19T09:05:54;100043.09;;;5.89
24740;BMP280;45234;48.148;17.128;2023-11-19T09:08:21;100038.56;;;5.91
24740;BMP280;45234;48.148;17.128;2023-11-19T09:10:48;100030.84;;;5.83
24740;BMP280;45234;48.148;17.128;2023-11-19T09:13:15;100032.47;;;5.92
24740;BMP280;45234;48.148;17.128;2023-11-19T09:15:42;100026.72;;;5.98
24740;BMP280;45234;48.148;17.128;2023-11-19T09:18:09;100025.44;;;6.02
24740;BMP280;45234;48.148;17.128;2023-11-19T09:20:36;100019.50;;;6.18
24740;BMP280;45234;48.148;17.128;2023-11-19T09:23:06;100025.41;;;6.34
24740;BMP280;45234;48.148;17.128;2023-11-19T09:25:33;100011.25;;;6.47
24740;BMP280;45234;48.148;17.128;2023-11-19T09:28:03;100006.09;;;6.47
24740;BMP280;45234;48.148;17.128;2023-11-19T09:30:30;100011.25;;;6.47
24740;BMP280;45234;48.148;17.128;2023-11-19T09:33:01;100004.03;;;6.42
24740;BMP280;45234;48.148;17.128;2023-11-19T09:35:28;100006.63;;;6.42
24740;BMP280;45234;48.148;17.128;2023-11-19T09:37:55;99987.16;;;6.31
24740;BMP280;45234;48.148;17.128;2023-11-19T09:40:22;99994.25;;;6.29
24740;BMP280;45234;48.148;17.128;2023-11-19T09:42:49;100000.31;;;6.36
24740;BMP280;45234;48.148;17.128;2023-11-19T09:45:17;99984.88;;;6.53
24740;BMP280;45234;48.148;17.128;2023-11-19T09:47:49;99988.88;;;6.55
24740;BMP280;45234;48.148;17.128;2023-11-19T09:50:20;99994.50;;;6.59
24740;BMP280;45234;48.148;17.128;2023-11-19T09:52:48;99989.69;;;6.64
24740;BMP280;45234;48.148;17.128;2023-11-19T09:55:15;99998.97;;;6.73
24740;BMP280;45234;48.148;17.128;2023-11-19T09:57:42;99977.94;;;6.70
24740;BMP280;45234;48.148;17.128;2023-11-19T10:00:12;99985.44;;;6.79
24740;BMP280;45234;48.148;17.128;2023-11-19T10:02:43;99975.28;;;6.94
24740;BMP280;45234;48.148;17.128;2023-11-19T10:05:14;99979.28;;;6.96
24740;BMP280;45234;48.148;17.128;2023-11-19T10:07:42;99974.13;;;6.96
24740;BMP280;45234;48.148;17.128;2023-11-19T10:10:09;99971.63;;;6.80
24740;BMP280;45234;48.148;17.128;2023-11-19T10:12:40;99963.28;;;6.62
24740;BMP280;45234;48.148;17.128;2023-11-19T10:15:24;99960.41;;;6.49
24740;BMP280;45234;48.148;17.128;2023-11-19T10:17:57;99944.31;;;6.47
24740;BMP280;45234;48.148;17.128;2023-11-19T10:20:25;99944.03;;;6.42
24740;BMP280;45234;48.148;17.128;2023-11-19T10:22:55;99939.50;;;6.35
24740;BMP280;45234;48.148;17.128;2023-11-19T10:25:24;99944.66;;;6.35
24740;BMP280;45234;48.148;17.128;2023-11-19T10:27:52;99943.22;;;6.25
24740;BMP280;45234;48.148;17.128;2023-11-19T10:30:24;99944.06;;;6.17
24740;BMP280;45234;48.148;17.128;2023-11-19T10:33:12;99935.03;;;6.21
24740;BMP280;45234;48.148;17.128;2023-11-19T10:36:00;99933.78;;;6.17
24740;BMP280;45234;48.148;17.128;2023-11-19T10:38:29;99923.50;;;6.17
24740;BMP280;45234;48.148;17.128;2023-11-19T10:40:57;99925.09;;;6.10
24740;BMP280;45234;48.148;17.128;2023-11-19T10:43:25;99939.38;;;6.04
24740;BMP280;45234;48.148;17.128;2023-11-19T10:45:53;99927.50;;;6.03
24740;BMP280;45234;48.148;17.128;2023-11-19T10:48:19;99924.75;;;6.05
24740;BMP280;45234;48.148;17.128;2023-11-19T10:50:53;99924.91;;;6.12
24740;BMP280;45234;48.148;17.128;2023-11-19T10:53:21;99911.56;;;6.08
24740;BMP280;45234;48.148;17.128;2023-11-19T10:55:50;99910.94;;;6.06
24740;BMP280;45234;48.148;17.128;2023-11-19T10:58:19;99907.72;;;6.12
24740;BMP280;45234;48.148;17.128;2023-11-19T11:00:51;99900.34;;;6.17
24740;BMP280;45234;48.148;17.128;2023-11-19T11:03:25;99893.72;;;6.15
24740;BMP280;45234;48.148;17.128;2023-11-19T11:05:54;99899.00;;;6.21
24740;BMP280;45234;48.148;17.128;2023-11-19T11:08:22;99887.09;;;6.20
24740;BMP280;45234;48.148;17.128;2023-11-19T11:10:56;99905.47;;;6.09
24740;BMP280;45234;48.148;17.128;2023-11-19T11:13:27;99911.91;;;6.13
24740;BMP280;45234;48.148;17.128;2023-11-19T11:15:58;99897.88;;;6.24
24740;BMP280;45234;48.148;17.128;2023-11-19T11:18:25;99881.81;;;6.30
24740;BMP280;45234;48.148;17.128;2023-11-19T11:29:10;99877.78;;;6.27
24740;BMP280;45234;48.148;17.128;2023-11-19T11:39:47;99865.69;;;6.83
24740;BMP280;45234;48.148;17.128;2023-11-19T11:45:11;99867.28;;;6.84
24740;BMP280;45234;48.148;17.128;2023-11-19T11:50:15;99846.06;;;6.74
24740;BMP280;45234;48.148;17.128;2023-11-19T11:55:35;99851.56;;;6.71
24740;BMP280;45234;48.148;17.128;2023-11-19T11:58:03;99843.19;;;6.69
24740;BMP280;45234;48.148;17.128;2023-11-19T12:00:33;99838.53;;;6.64
24740;BMP280;45234;48.148;17.128;2023-11-19T12:03:05;99832.91;;;6.61
24740;BMP280;45234;48.148;17.128;2023-11-19T12:05:43;99846.00;;;6.51
24740;BMP280;45234;48.148;17.128;2023-11-19T12:08:15;99842.63;;;6.51
24740;BMP280;45234;48.148;17.128;2023-11-19T12:10:46;99830.97;;;6.63
24740;BMP280;45234;48.148;17.128;2023-11-19T12:13:15;99826.88;;;6.77
24740;BMP280;45234;48.148;17.128;2023-11-19T12:18:28;99825.66;;;6.95
24740;BMP280;45234;48.148;17.128;2023-11-19T12:20:56;99820.84;;;6.92
24740;BMP280;45234;48.148;17.128;2023-11-19T12:23:23;99813.13;;;6.92
24740;BMP280;45234;48.148;17.128;2023-11-19T12:25:51;99809.75;;;6.92
24740;BMP280;45234;48.148;17.128;2023-11-19T12:28:18;99804.91;;;6.89
24740;BMP280;45234;48.148;17.128;2023-11-19T12:30:46;99801.53;;;6.88
24740;BMP280;45234;48.148;17.128;2023-11-19T12:33:14;99794.94;;;6.86
24740;BMP280;45234;48.148;17.128;2023-11-19T12:35:43;99802.16;;;6.90
24740;BMP280;45234;48.148;17.128;2023-11-19T12:38:23;99794.94;;;6.86
24740;BMP280;45234;48.148;17.128;2023-11-19T12:41:06;99803.00;;;6.91
24740;BMP280;45234;48.148;17.128;2023-11-19T12:43:33;99797.31;;;6.95
24740;BMP280;45234;48.148;17.128;2023-11-19T12:46:20;99792.84;;;6.89
24740;BMP280;45234;48.148;17.128;2023-11-19T12:48:51;99781.88;;;6.95
24740;BMP280;45234;48.148;17.128;2023-11-19T12:51:19;99791.47;;;7.02
24740;BMP280;45234;48.148;17.128;2023-11-19T12:53:51;99803.72;;;6.99
24740;BMP280;45234;48.148;17.128;2023-11-19T12:56:21;99799.22;;;7.02
24740;BMP280;45234;48.148;17.128;2023-11-19T12:58:49;99789.03;;;7.08
24740;BMP280;45234;48.148;17.128;2023-11-19T13:01:19;99784.28;;;7.12
24740;BMP280;45234;48.148;17.128;2023-11-19T13:03:47;99783.97;;;7.15
24740;BMP280;45234;48.148;17.128;2023-11-19T13:06:16;99786.72;;;7.13
24740;BMP280;45234;48.148;17.128;2023-11-19T13:08:44;99798.16;;;7.11
24740;BMP280;45234;48.148;17.128;2023-11-19T13:11:12;99795.78;;;7.09
24740;BMP280;45234;48.148;17.128;2023-11-19T13:13:59;99793.78;;;6.96
24740;BMP280;45234;48.148;17.128;2023-11-19T13:16:27;99788.25;;;6.99
24740;BMP280;45234;48.148;17.128;2023-11-19T13:18:54;99781.81;;;7.04
24740;BMP280;45234;48.148;17.128;2023-11-19T13:21:22;99778.91;;;6.98
24740;BMP280;45234;48.148;17.128;2023-11-19T13:23:49;99778.50;;;6.95
24740;BMP280;45234;48.148;17.128;2023-11-19T13:26:16;99782.84;;;6.94
24740;BMP280;45234;48.148;17.128;2023-11-19T13:28:43;99767.56;;;6.93
24740;BMP280;45234;48.148;17.128;2023-11-19T13:31:10;99780.91;;;6.96
24740;BMP280;45234;48.148;17.128;2023-11-19T13:33:37;99782.22;;;6.92
24740;BMP280;45234;48.148;17.128;2023-11-19T13:36:05;99777.47;;;6.81
24740;BMP280;45234;48.148;17.128;2023-11-19T13:38:37;99784.88;;;6.76
24740;BMP280;45234;48.148;17.128;2023-11-19T13:41:04;99785.59;;;6.70
24740;BMP280;45234;48.148;17.128;2023-11-19T13:43:31;99777.59;;;6.57
24740;BMP280;45234;48.148;17.128;2023-11-19T13:45:58;99785.31;;;6.57
24740;BMP280;45234;48.148;17.128;2023-11-19T13:48:26;99777.94;;;6.54
24740;BMP280;45234;48.148;17.128;2023-11-19T13:50:57;99788.19;;;6.62
24740;BMP280;45234;48.148;17.128;2023-11-19T13:53:24;99781.63;;;6.51
24740;BMP280;45234;48.148;17.128;2023-11-19T13:55:51;99795.19;;;6.45
24740;BMP280;45234;48.148;17.128;2023-11-19T13:58:18;99763.50;;;6.36
24740;BMP280;45234;48.148;17.128;2023-11-19T14:00:45;99777.97;;;6.46
24740;BMP280;45234;48.148;17.128;2023-11-19T14:03:12;99760.94;;;6.36
24740;BMP280;45234;48.148;17.128;2023-11-19T14:05:39;99763.75;;;6.27
24740;BMP280;45234;48.148;17.128;2023-11-19T14:08:08;99778.69;;;6.31
24740;BMP280;45234;48.148;17.128;2023-11-19T14:10:51;99782.91;;;6.16
24740;BMP280;45234;48.148;17.128;2023-11-19T14:13:18;99790.31;;;6.11
24740;BMP280;45234;48.148;17.128;2023-11-19T14:15:45;99764.59;;;6.11
24740;BMP280;45234;48.148;17.128;2023-11-19T14:18:16;99764.75;;;6.10
24740;BMP280;45234;48.148;17.128;2023-11-19T14:20:43;99784.53;;;6.17
24740;BMP280;45234;48.148;17.128;2023-11-19T14:23:11;99791.22;;;6.26
24740;BMP280;45234;48.148;17.128;2023-11-19T14:25:38;99792.31;;;6.32
24740;BMP280;45234;48.148;17.128;2023-11-19T14:28:05;99793.59;;;6.44
24740;BMP280;45234;48.148;17.128;2023-11-19T14:30:32;99770.97;;;6.31
24740;BMP280;45234;48.148;17.128;2023-11-19T14:33:01;99775.78;;;6.26
24740;BMP280;45234;48.148;17.128;2023-11-19T14:35:30;99785.78;;;6.21